createdAt,value
2018-06-11T00:00:43.387Z,0
2018-06-11T00:01:53.104Z,0
2018-06-11T00:03:02.550Z,0
2018-06-11T00:04:12.527Z,0
2018-06-11T00:05:22.232Z,0
2018-06-11T00:06:31.938Z,0
2018-06-11T00:07:41.907Z,0
2018-06-11T00:08:51.615Z,0
2018-06-11T00:10:01.319Z,0
2018-06-11T00:11:11.342Z,0
2018-06-11T00:12:21.331Z,0
2018-06-11T00:13:31.049Z,0
2018-06-11T00:14:41.028Z,0
2018-06-11T00:15:50.741Z,0
2018-06-11T00:17:00.698Z,0
2018-06-11T00:18:10.678Z,0
2018-06-11T00:19:20.629Z,0
2018-06-11T00:20:30.596Z,0
2018-06-11T00:21:40.317Z,0
2018-06-11T00:22:50.295Z,0
2018-06-11T00:23:59.766Z,0
2018-06-11T00:25:09.493Z,0
2018-06-11T00:26:19.195Z,0
2018-06-11T00:27:29.154Z,0
2018-06-11T00:28:39.137Z,0
2018-06-11T00:29:49.101Z,0
2018-06-11T00:30:58.815Z,0
2018-06-11T00:32:08.786Z,0
2018-06-11T00:33:18.763Z,0
2018-06-11T00:34:28.738Z,0
2018-06-11T00:35:38.709Z,0
2018-06-11T00:36:48.688Z,0
2018-06-11T00:37:58.651Z,0
2018-06-11T00:39:08.355Z,0
2018-06-11T00:40:18.317Z,0
2018-06-11T00:41:28.292Z,0
2018-06-11T00:42:38.265Z,0
2018-06-11T00:43:47.988Z,0
2018-06-11T00:44:57.951Z,0
2018-06-11T00:46:07.670Z,0
2018-06-11T00:47:17.639Z,0
2018-06-11T00:48:27.346Z,0
2018-06-11T00:49:37.318Z,0
2018-06-11T00:50:47.282Z,0
2018-06-11T00:51:56.996Z,0
2018-06-11T00:53:06.711Z,0
2018-06-11T00:54:16.426Z,0
2018-06-11T00:55:26.125Z,0
2018-06-11T00:56:36.095Z,0
2018-06-11T00:57:46.074Z,0
2018-06-11T00:58:56.042Z,0
2018-06-11T01:00:05.748Z,0
2018-06-11T01:01:15.456Z,0
2018-06-11T01:02:25.416Z,0
2018-06-11T01:03:35.394Z,0
2018-06-11T01:04:45.432Z,0
2018-06-11T01:05:55.401Z,0
2018-06-11T01:07:05.110Z,0
2018-06-11T01:08:15.084Z,0
2018-06-11T01:09:24.790Z,0
2018-06-11T01:10:34.989Z,0
2018-06-11T01:11:44.959Z,0
2018-06-11T01:12:54.676Z,0
2018-06-11T01:14:04.384Z,0
2018-06-11T01:15:14.342Z,0
2018-06-11T01:16:24.048Z,0
2018-06-11T01:17:34.006Z,0
2018-06-11T01:18:43.712Z,0
2018-06-11T01:19:53.671Z,0
2018-06-11T01:21:03.111Z,0
2018-06-11T01:22:12.573Z,0
2018-06-11T01:23:22.272Z,0
2018-06-11T01:24:31.985Z,0
2018-06-11T01:25:41.691Z,0
2018-06-11T01:26:51.665Z,0
2018-06-11T01:28:01.640Z,0
2018-06-11T01:29:11.606Z,0
2018-06-11T01:30:21.576Z,0
2018-06-11T01:31:31.542Z,0
2018-06-11T01:32:41.246Z,0
2018-06-11T01:33:51.209Z,0
2018-06-11T01:35:01.181Z,0
2018-06-11T01:36:11.157Z,0
2018-06-11T01:37:20.607Z,0
2018-06-11T01:38:30.605Z,0
2018-06-11T01:39:40.568Z,0
2018-06-11T01:40:50.520Z,0
2018-06-11T01:42:00.489Z,0
2018-06-11T01:43:10.451Z,0
2018-06-11T01:44:20.407Z,0
2018-06-11T01:45:30.109Z,0
2018-06-11T01:46:39.820Z,0
2018-06-11T01:47:49.780Z,0
2018-06-11T01:48:59.486Z,0
2018-06-11T01:50:09.452Z,0
2018-06-11T01:51:19.439Z,0
2018-06-11T01:52:29.420Z,0
2018-06-11T01:53:39.126Z,0
2018-06-11T01:54:49.092Z,0
2018-06-11T01:55:58.807Z,0
2018-06-11T01:57:08.529Z,0
2018-06-11T01:58:18.496Z,0
2018-06-11T01:59:28.201Z,0
2018-06-11T02:00:37.926Z,0
2018-06-11T02:01:47.651Z,0
2018-06-11T02:02:57.361Z,0
2018-06-11T02:04:07.075Z,0
2018-06-11T02:05:16.518Z,0
2018-06-11T02:06:25.970Z,0
2018-06-11T02:07:35.932Z,0
2018-06-11T02:08:45.899Z,0
2018-06-11T02:09:55.873Z,0
2018-06-11T02:11:05.859Z,0
2018-06-11T02:12:15.863Z,0
2018-06-11T02:13:25.846Z,0
2018-06-11T02:14:35.822Z,0
2018-06-11T02:15:45.531Z,0
2018-06-11T02:16:55.247Z,0
2018-06-11T02:18:05.263Z,0
2018-06-11T02:19:15.229Z,0
2018-06-11T02:20:25.204Z,0
2018-06-11T02:21:35.176Z,0
2018-06-11T02:22:44.631Z,0
2018-06-11T02:23:54.598Z,0
2018-06-11T02:25:04.563Z,0
2018-06-11T02:26:14.537Z,0
2018-06-11T02:27:24.495Z,0
2018-06-11T02:28:34.457Z,0
2018-06-11T02:29:44.431Z,0
2018-06-11T02:30:54.152Z,0
2018-06-11T02:32:04.116Z,0
2018-06-11T02:33:14.112Z,5
2018-06-11T02:34:24.079Z,5
2018-06-11T02:35:34.056Z,5
2018-06-11T02:36:44.025Z,5
2018-06-11T02:37:53.986Z,5
2018-06-11T02:39:03.698Z,5
2018-06-11T02:40:13.681Z,5
2018-06-11T02:41:23.397Z,5
2018-06-11T02:42:33.109Z,10
2018-06-11T02:43:43.093Z,10
2018-06-11T02:44:52.799Z,10
2018-06-11T02:46:02.766Z,10
2018-06-11T02:47:12.747Z,10
2018-06-11T02:48:22.465Z,15
2018-06-11T02:49:32.457Z,15
2018-06-11T02:50:42.425Z,15
2018-06-11T02:51:52.419Z,15
2018-06-11T02:53:01.879Z,20
2018-06-11T02:54:11.854Z,20
2018-06-11T02:55:21.574Z,20
2018-06-11T02:56:31.553Z,25
2018-06-11T02:57:41.273Z,25
2018-06-11T02:58:51.250Z,25
2018-06-11T03:00:01.218Z,30
2018-06-11T03:01:11.185Z,30
2018-06-11T03:02:21.166Z,35
2018-06-11T03:03:31.137Z,35
2018-06-11T03:04:41.098Z,35
2018-06-11T03:05:51.070Z,35
2018-06-11T03:07:01.060Z,40
2018-06-11T03:08:10.777Z,40
2018-06-11T03:09:20.491Z,40
2018-06-11T03:10:30.465Z,40
2018-06-11T03:11:40.443Z,45
2018-06-11T03:12:49.901Z,45
2018-06-11T03:13:59.879Z,45
2018-06-11T03:15:09.611Z,45
2018-06-11T03:16:19.578Z,45
2018-06-11T03:17:29.294Z,45
2018-06-11T03:18:39.268Z,45
2018-06-11T03:19:48.975Z,45
2018-06-11T03:20:58.681Z,40
2018-06-11T03:22:08.413Z,40
2018-06-11T03:23:18.386Z,40
2018-06-11T03:24:28.358Z,35
2018-06-11T03:25:38.318Z,35
2018-06-11T03:26:48.033Z,35
2018-06-11T03:27:57.998Z,35
2018-06-11T03:29:08.017Z,35
2018-06-11T03:30:17.980Z,35
2018-06-11T03:31:27.680Z,35
2018-06-11T03:32:37.390Z,40
2018-06-11T03:33:47.356Z,35
2018-06-11T03:34:57.072Z,35
2018-06-11T03:36:07.050Z,35
2018-06-11T03:37:17.031Z,40
2018-06-11T03:38:27.000Z,40
2018-06-11T03:39:36.975Z,45
2018-06-11T03:40:46.900Z,45
2018-06-11T03:41:56.627Z,50
2018-06-11T03:43:06.342Z,45
2018-06-11T03:44:16.310Z,50
2018-06-11T03:45:26.281Z,50
2018-06-11T03:46:36.243Z,55
2018-06-11T03:47:46.222Z,60
2018-06-11T03:48:56.198Z,60
2018-06-11T03:50:06.180Z,60
2018-06-11T03:51:15.893Z,60
2018-06-11T03:52:25.869Z,60
2018-06-11T03:53:35.587Z,60
2018-06-11T03:54:45.553Z,60
2018-06-11T03:55:55.518Z,65
2018-06-11T03:57:05.482Z,65
2018-06-11T03:58:15.447Z,60
2018-06-11T03:59:25.413Z,60
2018-06-11T04:00:35.377Z,60
2018-06-11T04:01:45.101Z,60
2018-06-11T04:02:55.077Z,65
2018-06-11T04:04:04.811Z,65
2018-06-11T04:05:14.793Z,65
2018-06-11T04:06:24.505Z,65
2018-06-11T04:07:34.212Z,65
2018-06-11T04:08:44.175Z,65
2018-06-11T04:09:54.134Z,70
2018-06-11T04:11:04.670Z,70
2018-06-11T04:12:14.666Z,75
2018-06-11T04:13:24.384Z,75
2018-06-11T04:14:34.099Z,75
2018-06-11T04:15:43.813Z,75
2018-06-11T04:16:53.786Z,75
2018-06-11T04:18:03.770Z,75
2018-06-11T04:19:13.742Z,85
2018-06-11T04:20:23.714Z,85
2018-06-11T04:21:33.174Z,85
2018-06-11T04:22:43.146Z,85
2018-06-11T04:23:53.112Z,90
2018-06-11T04:25:02.820Z,95
2018-06-11T04:26:12.014Z,100
2018-06-11T04:27:21.990Z,110
2018-06-11T04:28:31.694Z,110
2018-06-11T04:29:41.137Z,115
2018-06-11T04:30:51.198Z,115
2018-06-11T04:32:01.162Z,110
2018-06-11T04:33:10.899Z,115
2018-06-11T04:34:20.869Z,115
2018-06-11T04:35:30.594Z,115
2018-06-11T04:36:40.564Z,120
2018-06-11T04:37:50.024Z,130
2018-06-11T04:39:00.057Z,135
2018-06-11T04:40:10.059Z,140
2018-06-11T04:41:20.030Z,145
2018-06-11T04:42:30.002Z,155
2018-06-11T04:43:39.465Z,160
2018-06-11T04:44:49.440Z,165
2018-06-11T04:45:59.146Z,165
2018-06-11T04:47:09.115Z,180
2018-06-11T04:48:19.091Z,195
2018-06-11T04:49:28.801Z,210
2018-06-11T04:50:38.773Z,215
2018-06-11T04:51:48.734Z,210
2018-06-11T04:52:58.444Z,210
2018-06-11T04:54:08.415Z,215
2018-06-11T04:55:18.531Z,220
2018-06-11T04:56:28.509Z,210
2018-06-11T04:57:38.486Z,225
2018-06-11T04:58:48.445Z,230
2018-06-11T04:59:58.161Z,235
2018-06-11T05:01:07.873Z,240
2018-06-11T05:02:17.847Z,225
2018-06-11T05:03:27.817Z,230
2018-06-11T05:04:37.516Z,230
2018-06-11T05:05:47.500Z,225
2018-06-11T05:06:57.207Z,230
2018-06-11T05:08:06.975Z,225
2018-06-11T05:09:16.700Z,220
2018-06-11T05:10:26.676Z,215
2018-06-11T05:11:35.870Z,210
2018-06-11T05:12:45.575Z,220
2018-06-11T05:13:55.292Z,240
2018-06-11T05:15:05.260Z,265
2018-06-11T05:16:15.228Z,280
2018-06-11T05:17:24.941Z,290
2018-06-11T05:18:34.958Z,305
2018-06-11T05:19:44.924Z,315
2018-06-11T05:20:54.656Z,320
2018-06-11T05:22:04.633Z,325
2018-06-11T05:23:14.624Z,320
2018-06-11T05:24:24.575Z,325
2018-06-11T05:25:34.610Z,340
2018-06-11T05:26:44.571Z,350
2018-06-11T05:27:54.272Z,360
2018-06-11T05:29:03.982Z,355
2018-06-11T05:30:13.697Z,345
2018-06-11T05:31:23.701Z,320
2018-06-11T05:32:33.660Z,295
2018-06-11T05:33:43.633Z,285
2018-06-11T05:34:53.920Z,295
2018-06-11T05:36:03.689Z,285
2018-06-11T05:37:13.400Z,225
2018-06-11T05:38:23.384Z,190
2018-06-11T05:39:33.089Z,190
2018-06-11T05:40:43.310Z,185
2018-06-11T05:41:53.282Z,190
2018-06-11T05:43:03.001Z,195
2018-06-11T05:44:12.976Z,195
2018-06-11T05:45:22.945Z,190
2018-06-11T05:46:32.931Z,180
2018-06-11T05:47:42.662Z,170
2018-06-11T05:48:52.398Z,155
2018-06-11T05:50:02.434Z,155
2018-06-11T05:51:12.153Z,155
2018-06-11T05:52:22.171Z,165
2018-06-11T05:53:32.368Z,190
2018-06-11T05:54:42.084Z,190
2018-06-11T05:55:52.106Z,175
2018-06-11T05:57:01.857Z,180
2018-06-11T05:58:11.853Z,200
2018-06-11T05:59:21.820Z,255
2018-06-11T06:00:31.822Z,275
2018-06-11T06:01:41.805Z,275
2018-06-11T06:02:51.522Z,285
2018-06-11T06:04:01.499Z,295
2018-06-11T06:05:11.486Z,290
2018-06-11T06:06:21.477Z,290
2018-06-11T06:07:31.467Z,340
2018-06-11T06:08:41.262Z,380
2018-06-11T06:09:51.234Z,390
2018-06-11T06:11:01.228Z,390
2018-06-11T06:12:11.220Z,415
2018-06-11T06:13:21.212Z,435
2018-06-11T06:14:30.917Z,445
2018-06-11T06:15:40.883Z,435
2018-06-11T06:16:50.616Z,420
2018-06-11T06:18:00.352Z,410
2018-06-11T06:19:10.350Z,410
2018-06-11T06:20:19.812Z,410
2018-06-11T06:21:29.537Z,400
2018-06-11T06:22:39.519Z,375
2018-06-11T06:23:49.249Z,390
2018-06-11T06:24:58.710Z,405
2018-06-11T06:26:08.683Z,410
2018-06-11T06:27:18.657Z,405
2018-06-11T06:28:28.659Z,405
2018-06-11T06:29:38.395Z,420
2018-06-11T06:30:48.359Z,425
2018-06-11T06:31:58.067Z,440
2018-06-11T06:33:08.056Z,460
2018-06-11T06:34:18.418Z,495
2018-06-11T06:35:28.402Z,515
2018-06-11T06:36:38.107Z,510
2018-06-11T06:37:48.111Z,465
2018-06-11T06:38:58.073Z,425
2018-06-11T06:40:08.041Z,395
2018-06-11T06:41:17.757Z,365
2018-06-11T06:42:27.475Z,315
2018-06-11T06:43:37.208Z,285
2018-06-11T06:44:47.454Z,245
2018-06-11T06:45:57.187Z,205
2018-06-11T06:47:06.904Z,170
2018-06-11T06:48:16.610Z,155
2018-06-11T06:49:26.601Z,160
2018-06-11T06:50:36.318Z,155
2018-06-11T06:51:46.289Z,145
2018-06-11T06:52:56.273Z,145
2018-06-11T06:54:06.249Z,145
2018-06-11T06:55:16.013Z,150
2018-06-11T06:56:25.738Z,155
2018-06-11T06:57:35.734Z,180
2018-06-11T06:58:45.716Z,215
2018-06-11T06:59:55.702Z,275
2018-06-11T07:01:05.664Z,360
2018-06-11T07:02:15.635Z,435
2018-06-11T07:03:25.608Z,465
2018-06-11T07:04:35.591Z,475
2018-06-11T07:05:45.576Z,485
2018-06-11T07:06:55.549Z,485
2018-06-11T07:08:05.608Z,470
2018-06-11T07:09:15.045Z,460
2018-06-11T07:10:25.024Z,460
2018-06-11T07:11:34.753Z,460
2018-06-11T07:12:44.475Z,460
2018-06-11T07:13:54.567Z,475
2018-06-11T07:15:04.321Z,475
2018-06-11T07:16:14.073Z,440
2018-06-11T07:17:24.036Z,395
2018-06-11T07:18:34.009Z,390
2018-06-11T07:19:43.997Z,410
2018-06-11T07:20:54.002Z,430
2018-06-11T07:22:03.721Z,440
2018-06-11T07:23:13.696Z,470
2018-06-11T07:24:23.677Z,490
2018-06-11T07:25:33.392Z,520
2018-06-11T07:26:43.112Z,545
2018-06-11T07:27:53.115Z,570
2018-06-11T07:29:02.842Z,595
2018-06-11T07:30:12.835Z,610
2018-06-11T07:31:22.421Z,610
2018-06-11T07:32:32.660Z,610
2018-06-11T07:33:42.143Z,645
2018-06-11T07:34:51.918Z,665
2018-06-11T07:36:01.918Z,715
2018-06-11T07:37:11.674Z,770
2018-06-11T07:38:21.680Z,840
2018-06-11T07:39:31.673Z,850
2018-06-11T07:40:41.652Z,830
2018-06-11T07:41:51.120Z,800
2018-06-11T07:43:00.845Z,750
2018-06-11T07:44:10.811Z,655
2018-06-11T07:45:20.548Z,550
2018-06-11T07:46:30.280Z,480
2018-06-11T07:47:40.383Z,430
2018-06-11T07:48:50.379Z,440
2018-06-11T07:50:00.355Z,500
2018-06-11T07:51:10.399Z,565
2018-06-11T07:52:20.364Z,610
2018-06-11T07:53:30.102Z,635
2018-06-11T07:54:40.093Z,660
2018-06-11T07:55:50.083Z,685
2018-06-11T07:56:59.812Z,735
2018-06-11T07:58:09.789Z,800
2018-06-11T07:59:19.520Z,870
2018-06-11T08:00:29.487Z,910
2018-06-11T08:01:39.479Z,850
2018-06-11T08:02:49.484Z,770
2018-06-11T08:03:59.476Z,745
2018-06-11T08:05:09.198Z,735
2018-06-11T08:06:19.185Z,755
2018-06-11T08:07:29.330Z,720
2018-06-11T08:08:39.103Z,710
2018-06-11T08:09:49.074Z,730
2018-06-11T08:10:59.056Z,790
2018-06-11T08:12:09.036Z,845
2018-06-11T08:13:18.764Z,915
2018-06-11T08:14:28.777Z,935
2018-06-11T08:15:38.756Z,885
2018-06-11T08:16:48.742Z,765
2018-06-11T08:17:58.718Z,690
2018-06-11T08:19:08.706Z,660
2018-06-11T08:20:18.696Z,675
2018-06-11T08:21:28.694Z,700
2018-06-11T08:22:38.683Z,770
2018-06-11T08:23:48.664Z,865
2018-06-11T08:24:58.636Z,940
2018-06-11T08:26:08.618Z,940
2018-06-11T08:27:18.616Z,920
2018-06-11T08:28:28.344Z,940
2018-06-11T08:29:38.358Z,890
2018-06-11T08:30:48.094Z,915
2018-06-11T08:31:58.078Z,920
2018-06-11T08:33:07.805Z,925
2018-06-11T08:34:17.789Z,930
2018-06-11T08:35:27.778Z,900
2018-06-11T08:36:37.774Z,1425
2018-06-11T08:37:47.527Z,1445
2018-06-11T08:38:57.502Z,1095
2018-06-11T08:40:07.492Z,875
2018-06-11T08:41:17.474Z,870
2018-06-11T08:42:27.198Z,760
2018-06-11T08:43:36.966Z,635
2018-06-11T08:44:46.680Z,535
2018-06-11T08:45:56.654Z,500
2018-06-11T08:47:06.644Z,530
2018-06-11T08:48:16.135Z,570
2018-06-11T08:49:26.139Z,600
2018-06-11T08:50:35.870Z,655
2018-06-11T08:51:45.841Z,745
2018-06-11T08:52:55.815Z,1420
2018-06-11T08:54:05.802Z,1410
2018-06-11T08:55:15.809Z,1435
2018-06-11T08:56:25.812Z,1540
2018-06-11T08:57:35.532Z,1530
2018-06-11T08:58:45.580Z,1630
2018-06-11T08:59:55.699Z,1055
2018-06-11T09:01:05.760Z,790
2018-06-11T09:02:15.219Z,1665
2018-06-11T09:03:24.925Z,1720
2018-06-11T09:04:34.914Z,1030
2018-06-11T09:05:44.663Z,955
2018-06-11T09:06:54.662Z,1540
2018-06-11T09:08:04.645Z,1340
2018-06-11T09:09:14.640Z,1030
2018-06-11T09:10:24.365Z,1565
2018-06-11T09:11:34.380Z,1805
2018-06-11T09:12:44.554Z,1880
2018-06-11T09:13:54.542Z,1845
2018-06-11T09:15:04.512Z,1785
2018-06-11T09:16:14.485Z,920
2018-06-11T09:17:24.484Z,1245
2018-06-11T09:18:35.248Z,1570
2018-06-11T09:19:44.691Z,2030
2018-06-11T09:20:54.660Z,1665
2018-06-11T09:22:04.387Z,1255
2018-06-11T09:23:14.161Z,845
2018-06-11T09:24:24.154Z,1825
2018-06-11T09:25:34.171Z,2060
2018-06-11T09:26:44.150Z,2025
2018-06-11T09:27:54.134Z,1635
2018-06-11T09:29:03.659Z,965
2018-06-11T09:30:13.682Z,1980
2018-06-11T09:31:23.667Z,1875
2018-06-11T09:32:33.641Z,2030
2018-06-11T09:33:43.628Z,1620
2018-06-11T09:34:53.616Z,2200
2018-06-11T09:36:03.603Z,2215
2018-06-11T09:37:13.322Z,1315
2018-06-11T09:38:23.219Z,2205
2018-06-11T09:39:32.669Z,2255
2018-06-11T09:40:42.408Z,2190
2018-06-11T09:41:52.387Z,2060
2018-06-11T09:43:02.118Z,2070
2018-06-11T09:44:11.750Z,2105
2018-06-11T09:45:21.543Z,2220
2018-06-11T09:46:31.522Z,2205
2018-06-11T09:47:41.555Z,2270
2018-06-11T09:48:51.530Z,2290
2018-06-11T09:50:01.520Z,1190
2018-06-11T09:51:11.521Z,1110
2018-06-11T09:52:21.041Z,2455
2018-06-11T09:53:30.807Z,2430
2018-06-11T09:54:40.826Z,2390
2018-06-11T09:55:51.040Z,1840
2018-06-11T09:57:00.524Z,2215
2018-06-11T09:58:10.531Z,1055
2018-06-11T09:59:20.256Z,960
2018-06-11T10:00:30.233Z,930
2018-06-11T10:01:39.961Z,2145
2018-06-11T10:02:49.700Z,2280
2018-06-11T10:03:59.698Z,2425
2018-06-11T10:05:09.699Z,2285
2018-06-11T10:06:19.694Z,1515
2018-06-11T10:07:29.694Z,1185
2018-06-11T10:08:39.692Z,1235
2018-06-11T10:09:49.422Z,1080
2018-06-11T10:10:59.410Z,2310
2018-06-11T10:12:09.171Z,2190
2018-06-11T10:13:19.180Z,2235
2018-06-11T10:14:29.168Z,2300
2018-06-11T10:15:39.149Z,2330
2018-06-11T10:16:49.147Z,2355
2018-06-11T10:17:58.866Z,2510
2018-06-11T10:19:09.035Z,1015
2018-06-11T10:20:18.768Z,865
2018-06-11T10:21:28.496Z,885
2018-06-11T10:22:38.214Z,935
2018-06-11T10:23:47.944Z,1160
2018-06-11T10:24:58.261Z,1480
2018-06-11T10:26:08.236Z,2610
2018-06-11T10:27:17.949Z,2605
2018-06-11T10:28:27.678Z,1415
2018-06-11T10:29:37.390Z,2565
2018-06-11T10:30:47.392Z,2840
2018-06-11T10:31:57.403Z,2615
2018-06-11T10:33:07.374Z,1120
2018-06-11T10:34:17.349Z,2585
2018-06-11T10:35:27.330Z,2590
2018-06-11T10:36:37.057Z,1825
2018-06-11T10:37:46.862Z,2690
2018-06-11T10:38:56.580Z,2490
2018-06-11T10:40:06.581Z,2625
2018-06-11T10:41:16.601Z,2575
2018-06-11T10:42:26.085Z,2515
2018-06-11T10:43:36.075Z,2575
2018-06-11T10:44:46.053Z,2625
2018-06-11T10:45:56.040Z,2650
2018-06-11T10:47:06.028Z,2135
2018-06-11T10:48:16.019Z,1075
2018-06-11T10:49:26.015Z,2800
2018-06-11T10:50:36.020Z,2770
2018-06-11T10:51:46.229Z,2735
2018-06-11T10:52:56.224Z,2875
2018-06-11T10:54:06.236Z,2985
2018-06-11T10:55:16.241Z,2995
2018-06-11T10:56:25.971Z,3005
2018-06-11T10:57:35.998Z,1270
2018-06-11T10:58:45.777Z,2920
2018-06-11T10:59:55.561Z,2815
2018-06-11T11:01:05.578Z,2895
2018-06-11T11:02:15.563Z,2915
2018-06-11T11:03:25.048Z,2910
2018-06-11T11:04:34.896Z,2905
2018-06-11T11:05:44.912Z,2635
2018-06-11T11:06:54.919Z,1675
2018-06-11T11:08:04.664Z,2815
2018-06-11T11:09:14.659Z,2840
2018-06-11T11:10:24.695Z,2830
2018-06-11T11:11:34.692Z,2760
2018-06-11T11:12:45.050Z,2820
2018-06-11T11:13:55.059Z,3005
2018-06-11T11:15:04.792Z,3085
2018-06-11T11:16:14.835Z,2945
2018-06-11T11:17:24.582Z,2830
2018-06-11T11:18:34.315Z,2855
2018-06-11T11:19:44.297Z,2880
2018-06-11T11:20:53.882Z,2835
2018-06-11T11:22:03.928Z,2770
2018-06-11T11:23:13.939Z,2745
2018-06-11T11:24:23.694Z,2880
2018-06-11T11:25:33.684Z,2965
2018-06-11T11:26:43.692Z,2880
2018-06-11T11:27:53.435Z,2770
2018-06-11T11:29:03.424Z,2820
2018-06-11T11:30:13.164Z,2945
2018-06-11T11:31:22.897Z,2900
2018-06-11T11:32:32.908Z,2935
2018-06-11T11:33:42.899Z,2995
2018-06-11T11:34:52.584Z,3055
2018-06-11T11:36:02.315Z,3075
2018-06-11T11:37:12.314Z,2920
2018-06-11T11:38:22.314Z,2835
2018-06-11T11:39:32.312Z,2880
2018-06-11T11:40:42.315Z,3000
2018-06-11T11:41:52.075Z,3020
2018-06-11T11:43:02.085Z,2955
2018-06-11T11:44:12.106Z,2985
2018-06-11T11:45:22.105Z,3035
2018-06-11T11:46:31.861Z,3040
2018-06-11T11:47:41.862Z,3100
2018-06-11T11:48:51.863Z,3095
2018-06-11T11:50:01.865Z,3090
2018-06-11T11:51:11.864Z,3100
2018-06-11T11:52:21.894Z,3110
2018-06-11T11:53:31.894Z,3060
2018-06-11T11:54:41.878Z,3075
2018-06-11T11:55:51.878Z,3065
2018-06-11T11:57:01.875Z,2985
2018-06-11T11:58:11.876Z,3090
2018-06-11T11:59:21.604Z,3155
2018-06-11T12:00:31.597Z,3100
2018-06-11T12:01:41.749Z,3090
2018-06-11T12:02:51.745Z,3110
2018-06-11T12:04:01.740Z,3045
2018-06-11T12:05:11.725Z,3090
2018-06-11T12:06:21.453Z,3170
2018-06-11T12:07:31.198Z,3190
2018-06-11T12:08:41.201Z,3115
2018-06-11T12:09:51.184Z,3130
2018-06-11T12:11:01.181Z,3090
2018-06-11T12:12:10.903Z,3025
2018-06-11T12:13:20.377Z,3090
2018-06-11T12:14:30.103Z,3210
2018-06-11T12:15:40.084Z,3245
2018-06-11T12:16:50.094Z,3225
2018-06-11T12:17:59.835Z,3155
2018-06-11T12:19:10.210Z,3145
2018-06-11T12:20:20.290Z,3180
2018-06-11T12:21:30.275Z,3165
2018-06-11T12:22:40.253Z,3180
2018-06-11T12:23:50.229Z,3165
2018-06-11T12:25:00.221Z,3185
2018-06-11T12:26:09.938Z,3180
2018-06-11T12:27:19.929Z,3170
2018-06-11T12:28:29.922Z,3260
2018-06-11T12:29:39.639Z,3210
2018-06-11T12:30:49.635Z,3080
2018-06-11T12:31:59.634Z,3115
2018-06-11T12:33:09.635Z,3195
2018-06-11T12:34:19.367Z,3310
2018-06-11T12:35:28.840Z,3330
2018-06-11T12:36:38.817Z,3250
2018-06-11T12:37:48.792Z,3235
2018-06-11T12:38:58.776Z,3220
2018-06-11T12:40:08.503Z,3070
2018-06-11T12:41:18.503Z,2975
2018-06-11T12:42:28.233Z,3070
2018-06-11T12:43:38.243Z,3235
2018-06-11T12:44:48.247Z,3360
2018-06-11T12:45:58.229Z,3315
2018-06-11T12:47:07.937Z,3255
2018-06-11T12:48:17.931Z,3220
2018-06-11T12:49:27.366Z,3160
2018-06-11T12:50:37.310Z,3240
2018-06-11T12:51:47.328Z,3395
2018-06-11T12:52:57.563Z,3380
2018-06-11T12:54:07.288Z,3295
2018-06-11T12:55:17.286Z,3265
2018-06-11T12:56:27.590Z,3250
2018-06-11T12:57:37.328Z,3230
2018-06-11T12:58:47.316Z,3270
2018-06-11T12:59:57.314Z,3325
2018-06-11T13:01:07.322Z,3385
2018-06-11T13:02:17.312Z,3415
2018-06-11T13:03:27.358Z,3375
2018-06-11T13:04:37.353Z,3345
2018-06-11T13:05:47.341Z,3230
2018-06-11T13:06:57.329Z,3215
2018-06-11T13:08:07.327Z,3295
2018-06-11T13:09:17.326Z,3380
2018-06-11T13:10:27.326Z,3430
2018-06-11T13:11:37.057Z,3475
2018-06-11T13:12:46.524Z,3450
2018-06-11T13:13:56.552Z,3380
2018-06-11T13:15:06.353Z,3245
2018-06-11T13:16:16.375Z,3235
2018-06-11T13:17:26.114Z,3245
2018-06-11T13:18:35.593Z,3345
2018-06-11T13:19:45.586Z,3445
2018-06-11T13:20:55.312Z,3435
2018-06-11T13:22:05.123Z,3340
2018-06-11T13:23:14.853Z,3305
2018-06-11T13:24:24.058Z,3280
2018-06-11T13:25:34.052Z,3215
2018-06-11T13:26:44.063Z,3365
2018-06-11T13:27:53.794Z,3340
2018-06-11T13:29:03.800Z,3520
2018-06-11T13:30:13.800Z,3780
2018-06-11T13:31:23.785Z,3680
2018-06-11T13:32:33.775Z,3455
2018-06-11T13:33:43.755Z,3250
2018-06-11T13:34:53.481Z,3285
2018-06-11T13:36:03.489Z,3345
2018-06-11T13:37:13.824Z,3330
2018-06-11T13:38:23.564Z,3340
2018-06-11T13:39:33.566Z,3335
2018-06-11T13:40:43.557Z,3325
2018-06-11T13:41:53.532Z,3275
2018-06-11T13:43:03.514Z,3240
2018-06-11T13:44:13.488Z,3220
2018-06-11T13:45:23.248Z,3180
2018-06-11T13:46:33.234Z,3170
2018-06-11T13:47:43.224Z,3235
2018-06-11T13:48:53.198Z,3280
2018-06-11T13:50:03.222Z,3240
2018-06-11T13:51:13.215Z,3255
2018-06-11T13:52:23.191Z,3210
2018-06-11T13:53:33.192Z,3110
2018-06-11T13:54:43.217Z,3050
2018-06-11T13:55:53.216Z,3160
2018-06-11T13:57:03.370Z,3225
2018-06-11T13:58:13.707Z,3180
2018-06-11T13:59:23.708Z,3100
2018-06-11T14:00:33.685Z,3125
2018-06-11T14:01:43.681Z,3220
2018-06-11T14:02:53.699Z,3265
2018-06-11T14:04:03.433Z,3210
2018-06-11T14:05:13.427Z,3175
2018-06-11T14:06:23.416Z,3195
2018-06-11T14:07:33.404Z,3225
2018-06-11T14:08:43.443Z,3225
2018-06-11T14:09:53.469Z,3265
2018-06-11T14:11:03.465Z,3285
2018-06-11T14:12:13.467Z,3265
2018-06-11T14:13:23.458Z,3185
2018-06-11T14:14:33.203Z,3155
2018-06-11T14:15:43.215Z,3125
2018-06-11T14:16:53.257Z,3015
2018-06-11T14:18:03.257Z,3050
2018-06-11T14:19:13.279Z,3170
2018-06-11T14:20:23.294Z,3160
2018-06-11T14:21:33.308Z,3085
2018-06-11T14:22:43.314Z,2975
2018-06-11T14:23:53.051Z,2895
2018-06-11T14:25:02.798Z,2890
2018-06-11T14:26:12.835Z,2920
2018-06-11T14:27:22.839Z,2940
2018-06-11T14:28:32.590Z,2975
2018-06-11T14:29:42.642Z,2955
2018-06-11T14:30:52.635Z,2960
2018-06-11T14:32:02.376Z,3065
2018-06-11T14:33:12.376Z,3110
2018-06-11T14:34:22.105Z,3080
2018-06-11T14:35:32.117Z,2995
2018-06-11T14:36:42.109Z,2995
2018-06-11T14:37:52.106Z,3065
2018-06-11T14:39:02.114Z,3070
2018-06-11T14:40:11.842Z,3095
2018-06-11T14:41:21.696Z,3015
2018-06-11T14:42:31.700Z,2920
2018-06-11T14:43:41.163Z,2950
2018-06-11T14:44:51.188Z,2960
2018-06-11T14:46:00.920Z,2960
2018-06-11T14:47:10.919Z,2970
2018-06-11T14:48:20.912Z,2870
2018-06-11T14:49:30.646Z,2845
2018-06-11T14:50:40.632Z,2825
2018-06-11T14:51:50.619Z,2715
2018-06-11T14:53:00.633Z,2665
2018-06-11T14:54:10.387Z,2765
2018-06-11T14:55:20.365Z,2875
2018-06-11T14:56:30.115Z,2975
2018-06-11T14:57:40.107Z,2920
2018-06-11T14:58:49.837Z,2825
2018-06-11T15:00:00.065Z,2700
2018-06-11T15:01:10.073Z,2670
2018-06-11T15:02:20.071Z,2855
2018-06-11T15:03:30.059Z,2800
2018-06-11T15:04:40.047Z,2745
2018-06-11T15:05:49.804Z,2780
2018-06-11T15:06:59.536Z,2810
2018-06-11T15:08:09.557Z,2770
2018-06-11T15:09:19.376Z,2620
2018-06-11T15:10:29.062Z,2640
2018-06-11T15:11:38.778Z,2730
2018-06-11T15:12:48.771Z,2720
2018-06-11T15:13:58.505Z,2500
2018-06-11T15:15:08.231Z,2745
2018-06-11T15:16:17.955Z,2620
2018-06-11T15:17:27.675Z,2600
2018-06-11T15:18:37.414Z,2445
2018-06-11T15:19:47.416Z,2245
2018-06-11T15:20:57.414Z,1950
2018-06-11T15:22:07.455Z,2135
2018-06-11T15:23:17.193Z,1840
2018-06-11T15:24:26.930Z,1590
2018-06-11T15:25:36.912Z,1885
2018-06-11T15:26:46.887Z,1820
2018-06-11T15:27:56.605Z,2180
2018-06-11T15:29:06.622Z,2145
2018-06-11T15:30:16.351Z,2240
2018-06-11T15:31:25.822Z,2470
2018-06-11T15:32:35.793Z,2535
2018-06-11T15:33:45.782Z,2510
2018-06-11T15:34:55.512Z,2635
2018-06-11T15:36:05.261Z,2550
2018-06-11T15:37:15.274Z,2550
2018-06-11T15:38:25.255Z,2525
2018-06-11T15:39:35.228Z,2425
2018-06-11T15:40:44.953Z,2450
2018-06-11T15:41:54.720Z,2565
2018-06-11T15:43:04.702Z,2600
2018-06-11T15:44:14.973Z,2555
2018-06-11T15:45:24.981Z,2370
2018-06-11T15:46:35.026Z,2350
2018-06-11T15:47:45.013Z,2435
2018-06-11T15:48:54.484Z,2085
2018-06-11T15:50:04.593Z,2185
2018-06-11T15:51:14.328Z,2370
2018-06-11T15:52:24.304Z,2215
2018-06-11T15:53:34.283Z,2320
2018-06-11T15:54:44.260Z,2395
2018-06-11T15:55:54.248Z,2355
2018-06-11T15:57:03.988Z,2280
2018-06-11T15:58:13.987Z,1805
2018-06-11T15:59:23.982Z,1760
2018-06-11T16:00:34.119Z,1550
2018-06-11T16:01:43.601Z,1290
2018-06-11T16:02:52.807Z,1315